Portada
METAR-TAF:

METAR-TAF

Aeroports :

Beauvais, França

latitud: 49-28N, longitud: 002-07E, altitud: 109 m

Observació

L'informe es va fer fa 24 minuts, a les 20:30 UTC
Vent 1 kt amb direcció variable
Temperatura 20°C
Humitat 60%
Pressió 1017 hPa
Visibilitat 10 km o més
sense núvols per sota de 1500 mi sense presència de cumulonimbus.

METAR: LFOB 242030Z AUTO VRB01KT CAVOK 20/12 Q1017 NOSIG

Hora: 22:54 (20:54 UTC)

Pronòstic

L'informe es va fer fa 3 hores i 54 minuts, a les 17:00 UTC
Pronòstic vàlid del 24 a les 18 UTC al 25 a les 18 UTC
Vent 5 kt del Est
Visibilitat 10 km o més
sense núvols per sota de 1500 mi sense presència de cumulonimbus.

TAF: LFOB 241700Z 2418/2518 08005KT CAVOK

Observacions i pronòstics meteorològics de més de 4000 aeroports (METAR i TAF).

Les estacions disponibles són els punts grocs i vermells al mapa.

Posi el ratolí al punt desitjat per veure el nom de l'estació.

Feu clic per veure les observacions i els pronòstics meteorològics.

Per canviar el mapa: feu clic els botons verds amb una creu de color negre per apropar; al botó verd amb un guió per allunyar la imatge; o en les fletxes verdes per a mapes adjacents.


METAR-TAF: